createdAt,value
2018-10-18T00:02:20.706Z,74.48
2018-10-18T00:04:52.320Z,75.59
2018-10-18T00:07:20.177Z,79.21
2018-10-18T00:09:47.900Z,77.15
2018-10-18T00:12:15.728Z,79.44
2018-10-18T00:14:43.381Z,78.44
2018-10-18T00:18:14.547Z,78.50
2018-10-18T00:20:42.197Z,75.37
2018-10-18T00:23:09.909Z,78.77
2018-10-18T00:25:37.592Z,75.26
2018-10-18T00:28:05.440Z,77.14
2018-10-18T00:30:33.211Z,80.20
2018-10-18T00:33:00.927Z,81.50
2018-10-18T00:35:28.689Z,81.08
2018-10-18T00:37:56.421Z,79.56
2018-10-18T00:40:24.113Z,77.87
2018-10-18T00:42:51.822Z,79.97
2018-10-18T00:45:19.537Z,76.12
2018-10-18T00:47:47.385Z,75.39
2018-10-18T00:50:15.152Z,75.18
2018-10-18T00:52:42.922Z,74.96
2018-10-18T00:55:11.320Z,75.29
2018-10-18T00:57:39.896Z,75.55
2018-10-18T01:00:08.902Z,76.18
2018-10-18T01:02:36.613Z,76.35
2018-10-18T01:05:04.401Z,76.15
2018-10-18T01:07:32.113Z,76.31
2018-10-18T01:09:59.961Z,75.51
2018-10-18T01:12:27.863Z,74.09
2018-10-18T01:14:55.348Z,74.27
2018-10-18T01:17:23.118Z,74.55
2018-10-18T01:19:50.880Z,78.04
2018-10-18T01:22:18.603Z,75.29
2018-10-18T01:24:47.180Z,76.02
2018-10-18T01:27:14.817Z,75.91
2018-10-18T01:29:42.514Z,75.17
2018-10-18T01:32:10.223Z,75.91
2018-10-18T01:34:37.969Z,75.17
2018-10-18T01:37:05.821Z,76.11
2018-10-18T01:39:33.569Z,75.30
2018-10-18T01:42:01.351Z,75.36
2018-10-18T01:44:29.057Z,74.53
2018-10-18T01:46:56.789Z,75.41
2018-10-18T01:49:24.562Z,75.46
2018-10-18T01:51:52.260Z,76.98
2018-10-18T01:54:20.014Z,74.89
2018-10-18T01:56:47.736Z,75.64
2018-10-18T01:59:15.458Z,75.71
2018-10-18T02:01:43.192Z,75.37
2018-10-18T02:04:10.866Z,75.13
2018-10-18T02:06:38.610Z,75.39
2018-10-18T02:09:09.246Z,76.01
2018-10-18T02:11:37.066Z,75.51
2018-10-18T02:14:04.945Z,76.49
2018-10-18T02:16:32.757Z,76.21
2018-10-18T02:19:00.667Z,76.29
2018-10-18T02:21:28.381Z,76.18
2018-10-18T02:23:56.144Z,75.56
2018-10-18T02:26:23.853Z,75.87
2018-10-18T02:28:51.593Z,75.95
2018-10-18T02:31:19.271Z,76.01
2018-10-18T02:33:46.982Z,76.26
2018-10-18T02:36:14.760Z,77.21
2018-10-18T02:38:42.366Z,76.13
2018-10-18T02:41:10.145Z,77.16
2018-10-18T02:43:37.908Z,78.54
2018-10-18T02:46:05.685Z,77.67
2018-10-18T02:48:33.376Z,78.76
2018-10-18T02:51:01.139Z,77.70
2018-10-18T02:53:28.824Z,81.75
2018-10-18T02:55:56.525Z,80.07
2018-10-18T02:58:24.248Z,81.34
2018-10-18T03:00:51.974Z,81.32
2018-10-18T03:03:19.751Z,79.03
2018-10-18T03:05:47.414Z,80.06
2018-10-18T03:08:15.074Z,79.13
2018-10-18T03:10:42.789Z,77.52
2018-10-18T03:13:10.440Z,80.53
2018-10-18T03:15:38.094Z,78.97
2018-10-18T03:18:06.261Z,79.82
2018-10-18T03:20:33.943Z,82.00
2018-10-18T03:23:01.645Z,77.83
2018-10-18T03:25:29.415Z,78.91
2018-10-18T03:27:57.081Z,78.58
2018-10-18T03:30:24.780Z,79.26
2018-10-18T03:32:52.473Z,78.90
2018-10-18T03:35:20.213Z,79.45
2018-10-18T03:37:47.901Z,77.23
2018-10-18T03:40:15.618Z,76.97
2018-10-18T03:42:43.358Z,77.28
2018-10-18T03:45:11.065Z,77.30
2018-10-18T03:47:38.841Z,77.11
2018-10-18T03:50:06.897Z,76.99
2018-10-18T03:52:34.668Z,77.95
2018-10-18T03:55:02.393Z,77.84
2018-10-18T03:57:30.061Z,77.73
2018-10-18T03:59:58.380Z,77.47
2018-10-18T04:02:26.011Z,77.95
2018-10-18T04:04:53.718Z,78.12
2018-10-18T04:07:21.423Z,79.00
2018-10-18T04:09:49.146Z,78.17
2018-10-18T04:12:16.988Z,77.69
2018-10-18T04:14:44.669Z,77.69
2018-10-18T04:17:12.469Z,76.61
2018-10-18T04:19:40.141Z,77.65
2018-10-18T04:22:07.761Z,77.70
2018-10-18T04:24:35.489Z,77.48
2018-10-18T04:27:03.262Z,77.99
2018-10-18T04:29:31.058Z,77.69
2018-10-18T04:31:58.772Z,77.99
2018-10-18T04:34:26.477Z,78.09
2018-10-18T04:36:54.254Z,77.58
2018-10-18T04:39:22.008Z,77.66
2018-10-18T04:41:49.753Z,77.70
2018-10-18T04:44:17.454Z,77.51
2018-10-18T04:46:45.173Z,77.49
2018-10-18T04:49:12.961Z,77.32
2018-10-18T04:51:40.718Z,77.46
2018-10-18T04:54:08.450Z,79.09
2018-10-18T04:56:36.368Z,79.96
2018-10-18T04:59:04.620Z,77.39
2018-10-18T05:01:32.498Z,77.98
2018-10-18T05:04:00.205Z,77.63
2018-10-18T05:06:27.909Z,77.49
2018-10-18T05:08:55.574Z,78.43
2018-10-18T05:11:23.406Z,79.49
2018-10-18T05:13:51.011Z,78.38
2018-10-18T05:16:18.705Z,78.23
2018-10-18T05:18:46.445Z,78.10
2018-10-18T05:21:14.192Z,77.90
2018-10-18T05:23:41.879Z,77.78
2018-10-18T05:26:09.702Z,77.89
2018-10-18T05:28:37.409Z,79.69
2018-10-18T05:31:05.181Z,79.16
2018-10-18T05:33:32.805Z,79.42
2018-10-18T05:36:00.677Z,79.58
2018-10-18T05:38:31.256Z,80.27
2018-10-18T05:41:04.156Z,79.79
2018-10-18T05:43:31.849Z,81.43
2018-10-18T05:45:59.638Z,81.44
2018-10-18T05:48:27.393Z,81.37
2018-10-18T05:50:56.085Z,82.61
2018-10-18T05:53:23.887Z,80.88
2018-10-18T05:55:52.000Z,81.44
2018-10-18T05:58:19.966Z,83.75
2018-10-18T06:00:48.023Z,81.86
2018-10-18T06:03:15.898Z,81.55
2018-10-18T06:05:43.911Z,82.52
2018-10-18T06:08:11.935Z,82.71
2018-10-18T06:10:57.289Z,83.81
2018-10-18T06:13:25.657Z,83.76
2018-10-18T06:15:53.677Z,83.28
2018-10-18T06:18:21.746Z,82.17
2018-10-18T06:20:49.556Z,81.61
2018-10-18T06:23:17.416Z,82.77
2018-10-18T06:25:45.073Z,81.50
2018-10-18T06:28:12.813Z,82.42
2018-10-18T06:30:40.653Z,81.22
2018-10-18T06:33:08.554Z,81.50
2018-10-18T06:35:36.245Z,82.26
2018-10-18T06:38:04.194Z,81.75
2018-10-18T06:40:33.989Z,81.45
2018-10-18T06:43:01.959Z,83.21
2018-10-18T06:45:29.677Z,83.02
2018-10-18T06:47:57.546Z,81.45
2018-10-18T06:50:25.229Z,83.85
2018-10-18T06:52:53.169Z,82.83
2018-10-18T06:55:20.937Z,82.26
2018-10-18T06:57:48.727Z,82.90
2018-10-18T07:00:22.707Z,83.21
2018-10-18T07:02:50.921Z,84.45
2018-10-18T07:05:19.389Z,84.77
2018-10-18T07:07:47.200Z,83.74
2018-10-18T07:10:14.984Z,84.63
2018-10-18T07:12:46.161Z,83.99
2018-10-18T07:15:14.860Z,83.46
2018-10-18T07:17:43.319Z,84.37
2018-10-18T07:20:12.109Z,84.10
2018-10-18T07:22:40.663Z,83.34
2018-10-18T07:25:13.097Z,83.41
2018-10-18T07:27:41.281Z,84.42
2018-10-18T07:30:11.133Z,84.20
2018-10-18T07:32:38.820Z,84.62
2018-10-18T07:35:08.687Z,84.24
2018-10-18T07:37:36.511Z,83.75
2018-10-18T07:40:06.186Z,83.94
2018-10-18T07:42:33.968Z,82.95
2018-10-18T07:45:01.719Z,83.22
2018-10-18T07:47:29.513Z,83.55
2018-10-18T07:49:57.775Z,83.43
2018-10-18T07:52:30.366Z,82.67
2018-10-18T07:54:58.227Z,82.14
2018-10-18T07:57:25.938Z,81.66
2018-10-18T07:59:54.669Z,81.99
2018-10-18T08:02:22.292Z,81.47
2018-10-18T08:04:50.069Z,81.52
2018-10-18T08:07:17.927Z,81.15
2018-10-18T08:09:45.538Z,81.05
2018-10-18T08:12:13.314Z,80.96
2018-10-18T08:14:41.273Z,81.13
2018-10-18T08:17:09.040Z,80.65
2018-10-18T08:19:36.958Z,80.14
2018-10-18T08:22:04.721Z,80.06
2018-10-18T08:24:32.558Z,79.80
2018-10-18T08:27:00.394Z,79.70
2018-10-18T08:29:35.497Z,79.31
2018-10-18T08:32:03.360Z,79.02
2018-10-18T08:34:31.169Z,79.10
2018-10-18T08:36:59.021Z,78.93
2018-10-18T08:39:26.764Z,78.13
2018-10-18T08:41:54.537Z,77.81
2018-10-18T08:44:22.311Z,77.65
2018-10-18T08:46:50.043Z,77.49
2018-10-18T08:49:22.287Z,77.30
2018-10-18T08:51:50.228Z,77.52
2018-10-18T08:54:18.197Z,76.97
2018-10-18T08:56:46.368Z,76.97
2018-10-18T08:59:14.259Z,76.82
2018-10-18T09:01:42.115Z,76.67
2018-10-18T09:04:10.590Z,76.52
2018-10-18T09:06:38.461Z,76.56
2018-10-18T09:09:08.116Z,76.24
2018-10-18T09:11:35.964Z,75.85
2018-10-18T09:14:03.949Z,75.60
2018-10-18T09:16:31.887Z,75.62
2018-10-18T09:18:59.708Z,75.32
2018-10-18T09:21:27.502Z,74.73
2018-10-18T09:23:55.258Z,74.66
2018-10-18T09:26:22.965Z,75.00
2018-10-18T09:28:50.758Z,73.90
2018-10-18T09:31:18.652Z,73.84
2018-10-18T09:33:46.305Z,73.40
2018-10-18T09:36:14.001Z,73.33
2018-10-18T09:38:41.965Z,72.98
2018-10-18T09:41:09.761Z,72.81
2018-10-18T09:43:37.505Z,72.49
2018-10-18T09:46:06.000Z,72.48
2018-10-18T09:48:33.991Z,72.42
2018-10-18T09:51:01.829Z,72.05
2018-10-18T09:53:29.551Z,71.32
2018-10-18T09:55:57.344Z,71.49
2018-10-18T09:58:25.092Z,70.86
2018-10-18T10:00:58.591Z,70.06
2018-10-18T10:03:26.320Z,69.69
2018-10-18T10:05:54.145Z,70.28
2018-10-18T10:08:25.816Z,68.89
2018-10-18T10:10:53.617Z,68.27
2018-10-18T10:13:21.449Z,68.74
2018-10-18T10:15:49.695Z,67.26
2018-10-18T10:18:17.461Z,67.09
2018-10-18T10:20:45.264Z,66.70
2018-10-18T10:23:13.024Z,66.19
2018-10-18T10:25:40.700Z,65.13
2018-10-18T10:28:09.237Z,63.67
2018-10-18T10:30:37.157Z,63.83
2018-10-18T10:33:05.125Z,62.01
2018-10-18T10:35:32.854Z,60.87
2018-10-18T10:38:00.736Z,59.56
2018-10-18T10:40:28.568Z,58.42
2018-10-18T10:42:56.419Z,57.65
2018-10-18T10:45:24.107Z,56.34
2018-10-18T10:47:52.088Z,55.03
2018-10-18T10:50:19.952Z,54.61
2018-10-18T10:52:47.601Z,53.99
2018-10-18T10:55:15.325Z,53.54
2018-10-18T10:57:43.106Z,50.60
2018-10-18T11:00:10.991Z,51.26
2018-10-18T11:02:38.675Z,51.58
2018-10-18T11:05:06.510Z,51.71
2018-10-18T11:07:34.285Z,50.10
2018-10-18T11:10:02.077Z,50.32
2018-10-18T11:12:29.931Z,49.81
2018-10-18T11:14:57.742Z,48.18
2018-10-18T11:17:25.441Z,49.00
2018-10-18T11:19:53.165Z,48.96
2018-10-18T11:22:20.866Z,49.25
2018-10-18T11:24:48.738Z,49.69
2018-10-18T11:27:16.383Z,48.95
2018-10-18T11:29:44.073Z,47.61
2018-10-18T11:32:11.889Z,48.02
2018-10-18T11:34:39.614Z,49.18
2018-10-18T11:37:07.284Z,47.99
2018-10-18T11:39:35.098Z,48.74
2018-10-18T11:42:02.933Z,47.21
2018-10-18T11:44:36.188Z,49.38
2018-10-18T11:47:03.961Z,47.14
2018-10-18T11:49:31.674Z,48.23
2018-10-18T11:51:59.403Z,47.43
2018-10-18T11:54:27.097Z,46.95
2018-10-18T11:56:54.948Z,47.79
2018-10-18T11:59:22.694Z,48.21
2018-10-18T12:01:50.455Z,47.81
2018-10-18T12:04:18.174Z,49.26
2018-10-18T12:06:45.957Z,48.86
2018-10-18T12:09:13.689Z,47.91
2018-10-18T12:11:41.441Z,49.38
2018-10-18T12:14:09.209Z,50.61
2018-10-18T12:16:36.921Z,49.68
2018-10-18T12:19:05.369Z,48.71
2018-10-18T12:21:32.995Z,49.86
2018-10-18T12:24:00.717Z,49.42
2018-10-18T12:26:28.540Z,50.75
2018-10-18T12:28:56.319Z,48.61
2018-10-18T12:31:24.029Z,49.76
2018-10-18T12:33:51.770Z,49.35
2018-10-18T12:36:19.601Z,50.22
2018-10-18T12:38:47.354Z,50.64
2018-10-18T12:41:15.555Z,50.09
2018-10-18T12:43:42.985Z,49.93
2018-10-18T12:46:10.721Z,50.58
2018-10-18T12:48:38.561Z,49.51
2018-10-18T12:51:06.291Z,50.78
2018-10-18T12:53:34.229Z,51.06
2018-10-18T12:56:02.127Z,51.73
2018-10-18T12:58:29.824Z,49.76
2018-10-18T13:00:57.569Z,49.92
2018-10-18T13:03:25.292Z,50.28
2018-10-18T13:05:53.063Z,50.86
2018-10-18T13:08:20.887Z,50.69
2018-10-18T13:10:48.626Z,50.94
2018-10-18T13:13:16.296Z,51.64
2018-10-18T13:15:44.063Z,51.33
2018-10-18T13:18:11.839Z,51.78
2018-10-18T13:20:39.594Z,51.86
2018-10-18T13:23:07.405Z,52.46
2018-10-18T13:25:35.145Z,51.81
2018-10-18T13:28:03.149Z,52.81
2018-10-18T13:30:30.837Z,52.06
2018-10-18T13:32:58.561Z,52.84
2018-10-18T13:35:26.413Z,52.83
2018-10-18T13:37:54.285Z,53.71
2018-10-18T13:40:22.085Z,54.25
2018-10-18T13:42:49.941Z,52.99
2018-10-18T13:45:21.040Z,52.55
2018-10-18T13:47:48.775Z,53.46
2018-10-18T13:50:16.709Z,53.42
2018-10-18T13:52:44.469Z,53.23
2018-10-18T13:55:12.238Z,52.82
2018-10-18T13:57:39.916Z,53.06
2018-10-18T14:00:27.581Z,52.99
2018-10-18T14:02:59.141Z,52.80
2018-10-18T14:05:27.586Z,53.44
2018-10-18T14:08:00.254Z,53.28
2018-10-18T14:10:28.035Z,53.63
2018-10-18T14:12:55.866Z,53.64
2018-10-18T14:15:23.606Z,54.11
2018-10-18T14:17:51.679Z,54.04
2018-10-18T14:20:19.527Z,53.56
2018-10-18T14:22:47.276Z,53.92
2018-10-18T14:25:15.005Z,53.82
2018-10-18T14:27:42.921Z,53.70
2018-10-18T14:30:12.289Z,54.31
2018-10-18T14:32:40.820Z,54.20
2018-10-18T14:35:11.500Z,53.96
2018-10-18T14:37:39.182Z,54.32
2018-10-18T14:40:08.596Z,53.81
2018-10-18T14:42:37.557Z,53.75
2018-10-18T14:45:07.062Z,54.34
2018-10-18T14:47:34.857Z,54.37
2018-10-18T14:50:02.779Z,54.70
2018-10-18T14:52:33.604Z,54.22
2018-10-18T14:55:01.387Z,53.89
2018-10-18T14:57:29.189Z,55.00
2018-10-18T14:59:56.953Z,54.31
2018-10-18T15:02:24.722Z,55.08
2018-10-18T15:04:52.503Z,55.22
2018-10-18T15:07:20.222Z,55.15
2018-10-18T15:09:47.976Z,55.58
2018-10-18T15:12:15.885Z,55.54
2018-10-18T15:14:43.577Z,55.35
2018-10-18T15:17:11.448Z,55.71
2018-10-18T15:19:39.238Z,56.06
2018-10-18T15:22:07.250Z,55.83
2018-10-18T15:24:34.992Z,56.29
2018-10-18T15:27:02.874Z,56.33
2018-10-18T15:29:30.483Z,56.70
2018-10-18T15:31:58.298Z,56.46
2018-10-18T15:34:26.200Z,57.07
2018-10-18T15:36:54.275Z,57.17
2018-10-18T15:39:22.330Z,57.41
2018-10-18T15:41:49.941Z,57.46
2018-10-18T15:44:17.813Z,57.83
2018-10-18T15:46:45.516Z,57.74
2018-10-18T15:49:13.270Z,58.31
2018-10-18T15:51:41.047Z,58.13
2018-10-18T15:54:09.056Z,58.97
2018-10-18T15:56:36.906Z,59.05
2018-10-18T15:59:05.509Z,59.13
2018-10-18T16:01:33.574Z,59.32
2018-10-18T16:04:01.300Z,59.61
2018-10-18T16:06:29.272Z,60.16
2018-10-18T16:08:57.070Z,60.09
2018-10-18T16:11:25.183Z,60.51
2018-10-18T16:13:52.812Z,60.76
2018-10-18T16:16:20.561Z,60.56
2018-10-18T16:18:48.347Z,60.43
2018-10-18T16:21:16.179Z,61.14
2018-10-18T16:23:43.885Z,60.97
2018-10-18T16:26:11.760Z,61.46
2018-10-18T16:28:39.285Z,61.54
2018-10-18T16:31:07.009Z,61.33
2018-10-18T16:33:34.861Z,62.13
2018-10-18T16:36:06.180Z,62.41
2018-10-18T16:38:33.963Z,62.91
2018-10-18T16:41:01.989Z,62.55
2018-10-18T16:43:29.535Z,62.33
2018-10-18T16:45:57.348Z,62.82
2018-10-18T16:48:25.063Z,63.15
2018-10-18T16:50:52.794Z,63.47
2018-10-18T16:53:20.485Z,63.52
2018-10-18T16:55:48.307Z,63.45
2018-10-18T16:58:16.091Z,64.17
2018-10-18T17:00:43.721Z,64.60
2018-10-18T17:03:11.444Z,64.41
2018-10-18T17:05:39.233Z,63.79
2018-10-18T17:08:06.932Z,64.65
2018-10-18T17:10:34.697Z,63.99
2018-10-18T17:13:02.439Z,64.13
2018-10-18T17:15:30.169Z,65.22
2018-10-18T17:17:58.046Z,65.21
2018-10-18T17:20:25.932Z,65.19
2018-10-18T17:22:53.513Z,65.00
2018-10-18T17:25:21.841Z,65.08
2018-10-18T17:27:50.674Z,65.06
2018-10-18T17:30:18.680Z,65.23
2018-10-18T17:32:46.979Z,65.88
2018-10-18T17:35:14.877Z,65.34
2018-10-18T17:37:43.008Z,65.53
2018-10-18T17:40:11.637Z,65.50
2018-10-18T17:42:39.697Z,65.80
2018-10-18T17:45:09.464Z,66.25
2018-10-18T17:47:37.174Z,66.00
2018-10-18T17:50:06.985Z,66.62
2018-10-18T17:52:35.786Z,66.59
2018-10-18T17:55:05.225Z,67.19
2018-10-18T17:57:34.028Z,66.87
2018-10-18T18:00:02.287Z,66.70
2018-10-18T18:02:30.512Z,67.69
2018-10-18T18:04:58.481Z,67.56
2018-10-18T18:07:26.785Z,67.66
2018-10-18T18:09:54.998Z,67.70
2018-10-18T18:12:25.080Z,68.16
2018-10-18T18:14:54.074Z,69.48
2018-10-18T18:17:23.828Z,68.55
2018-10-18T18:19:53.338Z,68.55
2018-10-18T18:22:21.741Z,68.22
2018-10-18T18:24:53.960Z,68.51
2018-10-18T18:27:22.190Z,68.54
2018-10-18T18:29:51.078Z,68.41
2018-10-18T18:32:21.108Z,68.87
2018-10-18T18:34:49.044Z,68.45
2018-10-18T18:37:20.890Z,68.78
2018-10-18T18:39:49.938Z,68.58
2018-10-18T18:42:18.593Z,68.79
2018-10-18T18:44:49.791Z,69.00
2018-10-18T18:47:20.140Z,68.90
2018-10-18T18:49:49.336Z,68.76
2018-10-18T18:52:18.800Z,68.86
2018-10-18T18:54:47.158Z,69.91
2018-10-18T18:57:15.492Z,70.70
2018-10-18T18:59:44.077Z,70.73
2018-10-18T19:02:11.795Z,70.14
2018-10-18T19:04:42.013Z,70.53
2018-10-18T19:07:20.328Z,70.48
2018-10-18T19:09:50.559Z,72.00
2018-10-18T19:12:27.359Z,70.73
2018-10-18T19:14:59.562Z,71.51
2018-10-18T19:17:28.857Z,73.38
2018-10-18T19:19:57.115Z,74.20
2018-10-18T19:22:25.992Z,73.24
2018-10-18T19:24:54.423Z,73.53
2018-10-18T19:27:23.298Z,72.69
2018-10-18T19:29:52.160Z,72.92
2018-10-18T19:32:21.781Z,73.00
2018-10-18T19:34:50.549Z,72.61
2018-10-18T19:37:20.800Z,74.38
2018-10-18T19:39:49.958Z,74.86
2018-10-18T19:42:18.733Z,73.58
2018-10-18T19:44:49.132Z,74.01
2018-10-18T19:47:19.067Z,72.44
2018-10-18T19:49:48.923Z,74.44
2018-10-18T19:52:18.572Z,73.91
2018-10-18T19:54:46.293Z,74.17
2018-10-18T19:57:14.101Z,75.14
2018-10-18T19:59:42.597Z,74.86
2018-10-18T20:02:11.376Z,75.59
2018-10-18T20:04:41.043Z,75.00
2018-10-18T20:07:10.173Z,75.04
2018-10-18T20:09:40.192Z,75.71
2018-10-18T20:12:09.245Z,76.03
2018-10-18T20:14:38.957Z,75.29
2018-10-18T20:17:08.594Z,75.05
2018-10-18T20:19:37.873Z,74.40
2018-10-18T20:22:12.690Z,75.60
2018-10-18T20:24:44.607Z,74.56
2018-10-18T20:27:14.347Z,76.02
2018-10-18T20:29:43.681Z,73.91
2018-10-18T20:32:15.395Z,73.73
2018-10-18T20:34:43.237Z,74.72
2018-10-18T20:37:11.050Z,75.28
2018-10-18T20:39:39.506Z,74.72
2018-10-18T20:42:07.382Z,73.63
2018-10-18T20:44:35.178Z,74.20
2018-10-18T20:47:03.024Z,74.91
2018-10-18T20:49:30.651Z,75.84
2018-10-18T20:51:58.421Z,74.78
2018-10-18T20:54:26.151Z,76.35
2018-10-18T20:56:53.840Z,74.83
2018-10-18T20:59:21.549Z,74.26
2018-10-18T21:01:49.285Z,75.23
2018-10-18T21:04:17.100Z,75.82
2018-10-18T21:06:45.009Z,75.34
2018-10-18T21:09:12.652Z,75.45
2018-10-18T21:11:40.255Z,74.80
2018-10-18T21:14:07.959Z,74.63
2018-10-18T21:16:35.645Z,75.05
2018-10-18T21:19:03.661Z,75.42
2018-10-18T21:21:31.627Z,75.18
2018-10-18T21:23:59.370Z,76.08
2018-10-18T21:26:27.145Z,75.62
2018-10-18T21:28:54.850Z,75.11
2018-10-18T21:31:22.578Z,74.75
2018-10-18T21:33:50.561Z,74.99
2018-10-18T21:36:18.506Z,74.07
2018-10-18T21:38:46.388Z,74.98
2018-10-18T21:41:14.206Z,75.28
2018-10-18T21:43:41.867Z,74.54
2018-10-18T21:46:09.627Z,74.52
2018-10-18T21:48:37.589Z,74.89
2018-10-18T21:51:05.411Z,73.97
2018-10-18T21:53:33.075Z,74.78
2018-10-18T21:56:00.897Z,75.16
2018-10-18T21:58:28.665Z,74.68
2018-10-18T22:00:56.406Z,75.51
2018-10-18T22:03:24.166Z,75.32
2018-10-18T22:05:51.900Z,75.43
2018-10-18T22:08:19.569Z,76.17
2018-10-18T22:10:47.344Z,75.65
2018-10-18T22:13:14.988Z,75.61
2018-10-18T22:15:42.685Z,76.36
2018-10-18T22:18:10.334Z,74.69
2018-10-18T22:20:38.019Z,75.07
2018-10-18T22:23:05.802Z,75.48
2018-10-18T22:25:34.294Z,76.15
2018-10-18T22:28:02.197Z,76.43
2018-10-18T22:30:29.881Z,76.69
2018-10-18T22:32:57.596Z,75.92
2018-10-18T22:35:25.236Z,75.79
2018-10-18T22:37:52.985Z,75.42
2018-10-18T22:40:20.774Z,76.44
2018-10-18T22:42:48.508Z,76.33
2018-10-18T22:45:16.331Z,75.35
2018-10-18T22:47:44.009Z,77.11
2018-10-18T22:50:11.797Z,76.34
2018-10-18T22:52:39.564Z,76.20
2018-10-18T22:55:07.213Z,76.33
2018-10-18T22:57:34.946Z,76.67
2018-10-18T23:00:02.807Z,76.69
2018-10-18T23:02:30.585Z,76.38
2018-10-18T23:04:58.301Z,77.07
2018-10-18T23:07:25.939Z,77.26
2018-10-18T23:09:53.641Z,76.61
2018-10-18T23:12:21.360Z,78.26
2018-10-18T23:14:49.094Z,77.85
2018-10-18T23:17:16.847Z,77.36
2018-10-18T23:19:44.546Z,77.36
2018-10-18T23:22:16.556Z,77.71
2018-10-18T23:24:44.408Z,77.79
2018-10-18T23:27:11.800Z,77.69
2018-10-18T23:29:39.611Z,77.62
2018-10-18T23:32:08.229Z,77.60
2018-10-18T23:34:35.910Z,76.87
2018-10-18T23:37:03.741Z,78.25
2018-10-18T23:39:31.711Z,77.39
2018-10-18T23:41:59.588Z,78.05
2018-10-18T23:44:27.797Z,77.56
2018-10-18T23:46:55.528Z,77.91
2018-10-18T23:49:23.289Z,77.78
2018-10-18T23:51:50.961Z,78.33
2018-10-18T23:54:18.641Z,76.74
2018-10-18T23:56:46.337Z,77.65
2018-10-18T23:59:14.114Z,77.64
